Latest Weather Observations for Garden Island

IDW60901

Issued at 8:51 pm WST Monday 8 August 2022 (issued every 10 minutes, with the page automatically refreshed every 10 minutes)

About weather observations | Map of Perth area stations | Latest observations for Perth area | Other Formats
Station Details ID: 009256 Name: GARDEN ISLAND HSF Lat: -32.24 Lon: 115.68 Height: 6.0 m
Data from the previous 72 hours. | See also: Recent months at Garden Island
Date/Time
WST
Temp
°C
App
Temp
°C
Dew
Point
°C
Rel
Hum
%
Delta-T
°C
Wind Press
QNH
hPa
Press
MSL
hPa
Rain since
9am
mm
Dir  Spd
km/h
Gust
km/h
Spd
kts
Gust
kts
08/08:39pm 12.9 4.2 7.8 71 2.5 W 43 63 23 34 1012.0 1012.0 1.6
08/08:30pm 13.8 5.2 6.4 61 3.5 W 41 57 22 31 1011.9 1011.9 1.6
08/08:00pm 13.8 5.4 7.3 65 3.2 W 41 56 22 30 1011.8 1011.8 1.6
08/07:34pm 13.8 4.9 7.8 67 3.0 W 44 63 24 34 1011.9 1011.9 1.6
08/07:30pm 14.0 4.2 5.4 56 4.0 WNW 46 57 25 31 1011.8 1011.8 1.6
08/07:15pm 14.5 6.1 7.3 62 3.5 W 41 65 22 35 1011.7 1011.7 1.6
08/07:00pm 14.7 6.3 7.5 62 3.6 W 41 50 22 27 1011.6 1011.6 1.6
08/06:30pm 14.1 6.6 7.9 66 3.1 W 37 56 20 30 1011.6 1011.6 1.6
08/06:08pm 14.2 5.7 8.6 69 2.8 W 43 61 23 33 1011.4 1011.4 1.6
08/06:00pm 14.7 6.2 7.0 60 3.8 W 41 54 22 29 1011.3 1011.3 1.6
08/05:30pm 14.7 7.5 9.1 69 2.9 W 37 59 20 32 1011.0 1011.0 1.6
08/05:10pm 15.0 8.6 9.4 69 2.9 W 33 52 18 28 1011.0 1011.0 1.4
08/05:00pm 15.0 8.1 8.7 66 3.2 W 35 46 19 25 1010.9 1010.9 1.4
08/04:30pm 15.1 7.6 9.5 69 2.9 WSW 39 50 21 27 1010.7 1010.7 1.4
08/04:00pm 15.6 6.9 7.6 59 4.0 W 43 57 23 31 1010.7 1010.7 1.4
08/03:30pm 15.3 7.9 9.9 70 2.8 W 39 50 21 27 1010.7 1010.7 1.4
08/03:20pm 15.0 6.9 10.2 73 2.5 WSW 43 65 23 35 1011.0 1011.0 1.4
08/03:00pm 16.2 8.6 9.2 63 3.6 W 39 50 21 27 1010.6 1010.6 1.2
08/02:52pm 15.6 7.3 9.3 66 3.2 W 43 61 23 33 1010.6 1010.6 1.2
08/02:30pm 16.4 8.1 9.3 63 3.7 W 43 52 23 28 1010.4 1010.4 1.2
08/02:00pm 16.4 9.1 10.3 67 3.2 W 39 50 21 27 1010.4 1010.4 1.2
08/01:30pm 16.2 9.5 10.9 71 2.8 WNW 37 50 20 27 1010.6 1010.6 1.2
08/01:00pm 15.6 9.4 11.4 76 2.3 WNW 35 48 19 26 1011.0 1011.0 1.2
08/12:30pm 15.5 9.6 11.1 75 2.3 W 33 43 18 23 1011.6 1011.6 1.2
08/12:00pm 15.2 8.8 12.0 81 1.7 W 37 48 20 26 1011.9 1011.9 1.2
08/11:30am 14.9 8.2 12.4 85 1.4 W 39 48 21 26 1012.3 1012.3 1.2
08/11:11am 15.0 7.6 13.0 88 1.1 W 44 63 24 34 1012.5 1012.5 1.2
08/11:00am 14.1 4.1 12.5 90 0.9 W 57 80 31 43 1012.7 1012.7 1.2
08/10:37am 16.1 9.4 12.3 78 2.1 NW 39 69 21 37 1012.7 1012.7 0.2
08/10:30am 15.5 7.9 11.7 78 2.1 NW 43 76 23 41 1012.5 1012.5 0.2
08/10:22am 16.9 9.1 11.2 69 3.1 NW 43 76 23 41 1012.6 1012.6 0.0
08/10:00am 17.6 9.9 10.0 61 4.0 NW 41 54 22 29 1012.6 1012.6 0.0
08/09:46am 17.6 11.7 10.5 63 3.8 NNW 32 50 17 27 1012.5 1012.5 0.0
08/09:33am 16.4 11.3 12.0 75 2.4 N 30 48 16 26 1012.7 1012.7 0.0
08/09:30am 16.9 11.3 11.6 71 2.9 NNW 32 48 17 26 1012.7 1012.7 0.0
08/09:03am 17.7 12.6 10.6 63 3.8 NNW 28 46 15 25 1012.7 1012.7 0.0
08/09:00am 17.0 12.5 11.5 70 3.0 N 26 39 14 21 1012.9 1012.9 0.0
08/08:51am 16.5 10.7 11.4 72 2.8 NNW 33 50 18 27 1012.8 1012.8 0.0
08/08:30am 17.5 10.1 9.7 60 4.1 NW 39 54 21 29 1012.9 1012.9 0.0
08/08:18am 17.2 9.7 9.4 60 4.1 NW 39 57 21 31 1012.9 1012.9 0.0
08/08:00am 17.3 9.0 9.2 59 4.2 NW 43 56 23 30 1013.1 1013.1 0.0
08/07:30am 16.7 8.9 9.6 63 3.7 NW 41 61 22 33 1013.2 1013.2 0.0
08/07:24am 17.2 10.3 8.9 58 4.3 NW 35 54 19 29 1013.1 1013.1 0.0
08/07:00am 16.7 10.9 9.6 63 3.7 NNW 30 43 16 23 1013.3 1013.3 0.0
08/06:30am 17.0 9.3 8.7 58 4.3 NNW 39 52 21 28 1013.3 1013.3 0.0
08/06:00am 16.3 9.6 9.5 64 3.5 NNW 35 46 19 25 1013.4 1013.4 0.0
08/05:30am 16.6 10.3 9.8 64 3.6 NW 33 44 18 24 1013.6 1013.6 0.0
08/05:15am 16.5 10.5 8.5 59 4.1 NW 30 48 16 26 1013.6 1013.6 0.0
08/05:00am 16.5 10.0 8.0 57 4.3 NW 32 43 17 23 1013.8 1013.8 0.0
08/04:30am 16.0 9.3 7.5 57 4.2 NW 32 39 17 21 1014.1 1014.1 0.0
08/04:00am 15.9 9.3 7.9 59 4.0 NW 32 46 17 25 1014.3 1014.3 0.0
08/03:30am 15.7 9.8 8.9 64 3.5 NNW 30 39 16 21 1014.6 1014.6 0.0
08/03:00am 15.6 9.1 8.1 61 3.8 NNW 32 46 17 25 1014.9 1014.9 0.0
08/02:30am 15.1 10.3 9.0 67 3.1 NNW 24 39 13 21 1015.1 1015.1 0.0
08/02:00am 15.2 9.4 9.6 69 2.9 NNW 30 44 16 24 1015.5 1015.5 0.0
08/01:30am 15.5 11.0 8.5 63 3.5 NW 22 33 12 18 1015.9 1015.9 0.0
08/01:00am 15.4 10.4 8.2 62 3.6 NW 24 33 13 18 1016.2 1016.2 0.0
08/12:30am 15.4 10.2 7.2 58 4.0 NNW 24 32 13 17 1016.4 1016.4 0.0
08/12:00am 15.5 11.0 7.0 57 4.2 WNW 20 32 11 17 1016.6 1016.6 0.0
 
Date/Time
WST
Temp
°C
App
Temp
°C
Dew
Point
°C
Rel
Hum
%
Delta-T
°C
Wind Press
QNH
hPa
Press
MSL
hPa
Rain since
9am
mm
Dir  Spd
km/h
Gust
km/h
Spd
kts
Gust
kts
07/11:30pm 15.4 11.0 7.2 58 4.0 NW 20 30 11 16 1016.8 1016.8 0.0
07/11:00pm 15.3 10.8 6.3 55 4.3 NW 19 26 10 14 1016.9 1016.9 0.0
07/10:30pm 15.4 10.5 6.7 56 4.2 NW 22 32 12 17 1017.2 1017.2 0.0
07/10:00pm 15.4 11.5 7.2 58 4.0 WNW 17 22 9 12 1017.4 1017.4 0.0
07/09:30pm 15.4 10.2 7.2 58 4.0 NW 24 32 13 17 1017.7 1017.7 0.0
07/09:00pm 15.3 10.7 8.1 62 3.6 NW 22 30 12 16 1017.8 1017.8 0.0
07/08:30pm 15.0 9.8 8.7 66 3.2 NW 26 32 14 17 1017.7 1017.7 0.0
07/08:00pm 15.0 10.3 6.0 55 4.3 NW 20 24 11 13 1017.7 1017.7 0.0
07/07:30pm 15.4 10.8 6.7 56 4.2 NW 20 28 11 15 1017.6 1017.6 0.0
07/07:00pm 15.6 11.2 7.4 58 4.1 WNW 20 30 11 16 1017.4 1017.4 0.0
07/06:30pm 15.6 11.9 7.9 60 3.9 W 17 24 9 13 1017.0 1017.0 0.0
07/06:00pm 15.2 13.3 9.1 67 3.1 WSW 9 15 5 8 1016.8 1016.8 0.0
07/05:30pm 15.3 11.6 9.4 68 3.0 WSW 19 24 10 13 1016.7 1016.7 0.0
07/05:00pm 15.3 11.6 9.4 68 3.0 SW 19 24 10 13 1016.6 1016.6 0.0
07/04:30pm 15.5 12.5 9.2 66 3.2 WSW 15 20 8 11 1016.7 1016.7 0.0
07/04:00pm 16.4 12.5 8.6 60 4.0 WSW 19 24 10 13 1016.6 1016.6 0.0
07/03:30pm 16.7 12.5 9.6 63 3.7 WSW 22 28 12 15 1016.5 1016.5 0.0
07/03:00pm 16.5 13.1 10.4 67 3.2 WSW 19 28 10 15 1016.3 1016.3 0.0
07/02:30pm 17.0 13.0 10.4 65 3.5 SW 22 30 12 16 1016.2 1016.2 0.0
07/02:00pm 17.5 13.7 8.9 57 4.4 WSW 19 24 10 13 1016.2 1016.2 0.0
07/01:30pm 17.4 13.7 10.1 62 3.9 WSW 20 26 11 14 1016.4 1016.4 0.0
07/01:00pm 17.0 13.2 8.9 59 4.2 WSW 19 30 10 16 1016.8 1016.8 0.0
07/12:30pm 17.3 12.9 9.0 58 4.3 WSW 22 30 12 16 1017.2 1017.2 0.0
07/12:00pm 16.7 12.5 8.4 58 4.2 W 20 26 11 14 1017.5 1017.5 0.0
07/11:30am 16.1 11.3 8.8 62 3.7 WSW 24 33 13 18 1017.7 1017.7 0.0
07/11:00am 16.6 12.2 8.8 60 4.0 WSW 22 30 12 16 1017.8 1017.8 0.0
07/10:30am 16.2 11.5 10.5 69 3.0 SW 26 33 14 18 1017.9 1017.9 0.0
07/10:00am 16.7 10.6 8.4 58 4.2 WSW 30 39 16 21 1017.7 1017.7 0.0
07/09:30am 15.9 10.2 11.1 73 2.6 SW 32 44 17 24 1017.4 1017.4 0.0
07/09:00am 15.9 10.5 9.6 66 3.3 WSW 28 41 15 22 1017.3 1017.3 13.8
07/08:30am 16.0 10.1 10.3 69 3.0 WSW 32 44 17 24 1017.0 1017.0 13.8
07/08:00am 15.7 9.5 10.0 69 3.0 WSW 33 41 18 22 1016.6 1016.6 13.8
07/07:30am 15.0 9.1 11.2 78 2.0 WSW 33 44 18 24 1016.3 1016.3 13.8
07/07:17am 15.0 10.1 11.2 78 2.0 WSW 28 56 15 30 1016.1 1016.1 13.6
07/07:00am 15.0 9.3 11.2 78 2.0 WSW 32 39 17 21 1015.9 1015.9 13.6
07/06:30am 14.6 7.8 12.1 85 1.4 WSW 39 57 21 31 1015.7 1015.7 13.6
07/06:14am 14.3 11.5 12.7 90 0.9 W 19 48 10 26 1015.5 1015.5 13.4
07/06:00am 13.8 10.6 12.0 89 1.0 W 20 30 11 16 1015.5 1015.5 13.0
07/05:59am 13.9 10.8 12.1 89 1.0 WSW 20 30 11 16 1015.4 1015.4 12.8
07/05:30am 14.9 8.8 12.9 88 1.1 SW 37 56 20 30 1015.0 1015.0 11.2
07/05:21am 15.7 9.6 13.0 84 1.5 SW 37 48 20 26 1014.6 1014.6 10.8
07/05:00am 16.1 10.9 11.5 74 2.5 W 30 39 16 21 1014.5 1014.5 10.8
07/04:30am 15.8 10.5 12.4 80 1.9 W 32 39 17 21 1014.3 1014.3 10.8
07/04:00am 14.5 10.5 13.0 91 0.8 W 26 39 14 21 1014.3 1014.3 10.8
07/03:30am 15.5 10.7 12.8 84 1.5 W 30 41 16 22 1014.4 1014.4 6.0
07/03:00am 15.8 11.4 12.9 83 1.6 WNW 28 41 15 22 1014.4 1014.4 6.0
07/02:30am 15.3 9.8 13.5 89 1.0 WNW 35 48 19 26 1014.4 1014.4 6.0
07/02:16am 15.0 8.0 13.7 92 0.7 WNW 43 65 23 35 1014.5 1014.5 6.0
07/02:06am 15.2 9.0 13.7 91 0.8 W 39 65 21 35 1014.7 1014.7 5.0
07/02:05am 15.2 9.3 13.7 91 0.8 W 37 61 20 33 1014.7 1014.7 4.8
07/02:00am 14.9 7.6 12.9 88 1.1 W 43 57 23 31 1014.7 1014.7 4.0
07/01:51am 16.1 10.3 12.7 80 1.9 WNW 35 52 19 28 1014.7 1014.7 3.4
07/01:30am 16.6 11.7 12.6 77 2.2 NW 30 43 16 23 1014.7 1014.7 3.4
07/01:00am 16.6 11.7 12.6 77 2.2 NW 30 41 16 22 1015.0 1015.0 3.4
07/12:30am 16.5 11.7 11.6 73 2.7 WNW 28 35 15 19 1015.2 1015.2 3.4
07/12:00am 16.6 12.3 12.0 74 2.5 WNW 26 33 14 18 1015.2 1015.2 3.4
 
Date/Time
WST
Temp
°C
App
Temp
°C
Dew
Point
°C
Rel
Hum
%
Delta-T
°C
Wind Press
QNH
hPa
Press
MSL
hPa
Rain since
9am
mm
Dir  Spd
km/h
Gust
km/h
Spd
kts
Gust
kts
06/11:30pm 16.6 12.8 12.4 76 2.3 WNW 24 33 13 18 1015.5 1015.5 3.4
06/11:00pm 16.5 12.8 12.8 79 2.1 WNW 24 33 13 18 1015.5 1015.5 3.4
06/10:30pm 16.4 12.6 13.5 83 1.6 WNW 26 32 14 17 1015.7 1015.7 3.4
06/10:00pm 16.0 12.0 14.0 88 1.1 NW 28 37 15 20 1016.0 1016.0 3.4
06/09:30pm 15.1 11.1 14.0 93 0.6 NW 28 37 15 20 1016.1 1016.1 3.4
06/09:00pm 15.2 9.6 13.4 89 1.0 NW 35 48 19 26 1016.3 1016.3 1.8
06/08:30pm 16.3 11.4 13.6 84 1.5 NW 32 46 17 25 1016.1 1016.1 1.0
06/08:00pm 14.9 9.7 12.8 87 1.2 NNW 32 57 17 31 1016.2 1016.2 1.0
06/07:55pm 15.0 9.8 12.7 86 1.3 NNW 32 57 17 31 1016.3 1016.3 1.0
06/07:51pm 15.6 11.8 12.5 82 1.7 N 24 57 13 31 1016.3 1016.3 1.0
06/07:30pm 16.5 13.1 12.5 77 2.2 NNW 22 32 12 17 1016.3 1016.3 1.0
06/07:00pm 15.1 13.2 13.1 88 1.1 N 15 20 8 11 1016.4 1016.4 1.0
06/06:30pm 14.9 11.4 12.2 84 1.5 N 22 41 12 22 1016.4 1016.4 1.0
06/06:00pm 14.9 11.8 11.5 80 1.8 N 19 24 10 13 1016.4 1016.4 0.8
06/05:30pm 14.8 12.5 11.9 83 1.6 NNW 15 24 8 13 1016.5 1016.5 0.8
06/05:00pm 15.5 12.2 11.7 78 2.0 N 20 26 11 14 1016.4 1016.4 0.8
06/04:30pm 16.1 12.5 11.9 76 2.3 N 22 30 12 16 1016.6 1016.6 0.8
06/04:00pm 16.8 13.1 10.2 65 3.5 N 20 26 11 14 1016.6 1016.6 0.8
06/03:30pm 17.0 13.3 10.1 64 3.6 NNW 20 30 11 16 1016.8 1016.8 0.8
06/03:00pm 17.1 12.8 9.5 61 4.0 NNW 22 28 12 15 1017.0 1017.0 0.8
06/02:30pm 17.5 13.0 10.1 62 3.9 NNW 24 33 13 18 1017.1 1017.1 0.8
06/02:00pm 17.1 12.6 10.0 63 3.7 NNW 24 33 13 18 1017.2 1017.2 0.8
06/01:30pm 17.1 12.6 10.2 64 3.7 NNW 24 32 13 17 1017.6 1017.6 0.8
06/01:00pm 17.1 12.6 10.0 63 3.7 NNW 24 32 13 17 1018.0 1018.0 0.8
06/12:30pm 17.3 13.0 9.5 60 4.1 NW 22 30 12 16 1018.5 1018.5 0.8
06/12:00pm 16.8 11.8 9.5 62 3.8 NW 26 32 14 17 1019.1 1019.1 0.8
06/11:30am 16.8 13.7 10.2 65 3.5 NNW 17 26 9 14 1019.5 1019.5 0.8
06/11:00am 16.4 13.2 11.1 71 2.8 N 19 24 10 13 1019.6 1019.6 0.8
06/10:30am 14.5 11.8 11.7 83 1.5 N 17 24 9 13 1019.9 1019.9 0.8
06/10:00am 14.6 11.7 12.8 89 1.0 NW 20 32 11 17 1020.0 1020.0 0.8
06/09:30am 13.1 11.4 12.3 95 0.4 NE 13 19 7 10 1019.9 1019.9 0.8
06/09:00am 12.6 10.3 11.8 95 0.4 NE 15 20 8 11 1019.9 1019.9 0.8
06/08:30am 13.0 11.2 12.2 95 0.4 ENE 13 17 7 9 1019.7 1019.7 0.6
06/08:00am 12.8 11.3 11.9 94 0.5 E 11 17 6 9 1019.5 1019.5 0.6
06/07:30am 13.1 12.5 12.2 94 0.5 SE 7 13 4 7 1019.2 1019.2 0.6
06/07:00am 13.6 10.9 11.8 89 1.0 SW 17 20 9 11 1019.1 1019.1 0.6
06/06:30am 13.7 9.8 12.1 90 0.9 WSW 24 35 13 19 1019.0 1019.0 0.6
06/06:00am 13.5 12.8 11.9 90 0.9 SE 7 13 4 7 1018.7 1018.7 0.6
06/05:30am 14.2 11.7 12.4 89 1.0 SSW 17 19 9 10 1018.5 1018.5 0.6
06/05:00am 14.2 12.2 12.6 90 0.9 W 15 24 8 13 1018.4 1018.4 0.6
06/04:30am 13.7 10.7 12.6 93 0.6 NW 20 26 11 14 1018.5 1018.5 0.6
06/04:00am 13.7 11.1 13.2 97 0.3 WNW 19 30 10 16 1018.5 1018.5 0.6
06/03:30am 12.2 9.9 11.9 98 0.2 ENE 15 20 8 11 1018.5 1018.5 0.6
06/03:00am 12.0 9.3 11.7 98 0.2 NE 17 22 9 12 1018.7 1018.7 0.6
06/02:30am 12.0 9.3 11.7 98 0.2 NE 17 22 9 12 1018.7 1018.7 0.6
06/02:00am 12.4 10.2 12.1 98 0.2 NE 15 20 8 11 1019.1 1019.1 0.4
06/01:30am 12.5 10.7 12.0 97 0.3 NE 13 19 7 10 1019.3 1019.3 0.2
06/01:00am 12.3 10.4 11.8 97 0.3 NE 13 20 7 11 1019.4 1019.4 0.2
06/12:30am 11.9 10.3 11.4 97 0.3 NE 11 17 6 9 1019.6 1019.6 0.2
06/12:00am 11.5 9.4 11.0 97 0.3 ENE 13 15 7 8 1019.8 1019.8 0.2
 
Date/Time
WST
Temp
°C
App
Temp
°C
Dew
Point
°C
Rel
Hum
%
Delta-T
°C
Wind Press
QNH
hPa
Press
MSL
hPa
Rain since
9am
mm
Dir  Spd
km/h
Gust
km/h
Spd
kts
Gust
kts
05/11:30pm 11.7 9.6 11.1 96 0.3 ENE 13 17 7 9 1019.8 1019.8 0.2
05/11:00pm 11.6 9.5 11.0 96 0.3 ENE 13 20 7 11 1020.1 1020.1 0.2
05/10:30pm 11.5 8.6 10.9 96 0.3 ENE 17 20 9 11 1020.3 1020.3 0.2
05/10:00pm 11.6 9.0 10.8 95 0.4 ENE 15 19 8 10 1020.5 1020.5 0.2
05/09:30pm 11.6 8.6 10.7 94 0.5 ENE 17 20 9 11 1020.6 1020.6 0.2
05/09:00pm 11.7 9.1 10.8 94 0.5 E 15 20 8 11 1020.6 1020.6 0.2

Latest Capital City Observations: Canberra | Sydney | Melbourne | Brisbane | Adelaide | Perth | Hobart | Darwin

Other formats

Comma delimited format used in spreadsheet applications
http://www.bom.gov.au/fwo/IDW60901/IDW60901.95607.axf

JavaScript Object Notation format (JSON) in row-major order
http://www.bom.gov.au/fwo/IDW60901/IDW60901.95607.json

Data quality

Most of these data are generated automatically and are frequently updated. Quality checks on data are not normally performed. It is possible for incorrect values to appear. Refer to information at About Latest Weather Observations and please check the disclaimer before using these data.